createdAt,value
2016-05-10T00:00:16.455Z,14.2
2016-05-10T00:02:16.507Z,14.39
2016-05-10T00:03:30.713Z,14.27
2016-05-10T00:04:16.544Z,14.21
2016-05-10T00:05:16.562Z,14.09
2016-05-10T00:06:16.596Z,14.14
2016-05-10T00:07:30.802Z,14.06
2016-05-10T00:08:16.648Z,14.02
2016-05-10T00:09:16.354Z,13.89
2016-05-10T00:10:16.373Z,13.99
2016-05-10T00:11:16.704Z,13.91
2016-05-10T00:12:16.748Z,13.77
2016-05-10T00:13:30.995Z,13.64
2016-05-10T00:14:16.883Z,13.62
2016-05-10T00:16:17.002Z,13.67
2016-05-10T00:18:16.936Z,13.63
2016-05-10T00:19:16.969Z,13.54
2016-05-10T00:20:17.018Z,13.55
2016-05-10T00:21:17.066Z,13.59
2016-05-10T00:22:31.421Z,13.67
2016-05-10T00:23:31.445Z,13.66
2016-05-10T00:24:17.297Z,13.59
2016-05-10T00:25:17.164Z,13.57
2016-05-10T00:26:17.344Z,13.55
2016-05-10T00:27:17.209Z,13.55
2016-05-10T00:28:17.401Z,13.59
2016-05-10T00:29:31.438Z,13.54
2016-05-10T00:30:17.285Z,13.44
2016-05-10T00:31:17.462Z,13.54
2016-05-10T00:33:17.501Z,13.46
2016-05-10T00:34:17.519Z,13.44
2016-05-10T00:36:17.589Z,13.32
2016-05-10T00:37:17.592Z,13.3
2016-05-10T00:38:17.627Z,13.36
2016-05-10T00:39:31.832Z,13.17
2016-05-10T00:40:17.507Z,13.12
2016-05-10T00:41:17.682Z,13.14
2016-05-10T00:42:17.716Z,13.14
2016-05-10T00:43:17.735Z,13.19
2016-05-10T00:44:17.752Z,13.2
2016-05-10T00:45:31.975Z,13.17
2016-05-10T00:46:17.790Z,13.25
2016-05-10T00:47:17.683Z,13.32
2016-05-10T00:49:17.860Z,13.22
2016-05-10T00:51:17.928Z,13.12
2016-05-10T00:52:32.118Z,13.23
2016-05-10T00:54:17.812Z,13.17
2016-05-10T00:55:17.986Z,13.15
2016-05-10T00:56:32.192Z,13.05
2016-05-10T00:57:18.038Z,13.14
2016-05-10T00:58:18.056Z,13.14
2016-05-10T00:59:18.153Z,13
2016-05-10T01:00:32.281Z,13.05
2016-05-10T01:01:17.970Z,13.03
2016-05-10T01:02:18.145Z,13.05
2016-05-10T01:03:18.164Z,12.97
2016-05-10T01:04:18.182Z,13.1
2016-05-10T01:05:18.059Z,13
2016-05-10T01:06:18.234Z,12.93
2016-05-10T01:07:18.268Z,12.96
2016-05-10T01:08:18.286Z,12.92
2016-05-10T01:09:18.289Z,13.01
2016-05-10T01:10:18.323Z,13.05
2016-05-10T01:11:18.357Z,13.03
2016-05-10T01:13:18.378Z,12.92
2016-05-10T01:14:18.787Z,12.93
2016-05-10T01:15:18.274Z,12.9
2016-05-10T01:16:18.449Z,12.86
2016-05-10T01:17:18.467Z,12.85
2016-05-10T01:18:18.501Z,12.86
2016-05-10T01:19:18.519Z,12.79
2016-05-10T01:20:18.538Z,12.75
2016-05-10T01:21:18.555Z,12.82
2016-05-10T01:22:18.590Z,12.79
2016-05-10T01:24:32.814Z,12.68
2016-05-10T01:25:18.504Z,12.64
2016-05-10T01:26:18.679Z,12.49
2016-05-10T01:27:18.696Z,12.56
2016-05-10T01:28:18.715Z,12.59
2016-05-10T01:29:19.734Z,12.64
2016-05-10T01:30:18.593Z,12.82
2016-05-10T01:31:18.611Z,12.68
2016-05-10T01:32:32.976Z,12.68
2016-05-10T01:33:18.823Z,12.64
2016-05-10T01:34:18.856Z,12.72
2016-05-10T01:35:18.875Z,12.72
2016-05-10T01:36:18.878Z,12.68
2016-05-10T01:38:18.770Z,12.57
2016-05-10T01:39:18.789Z,12.52
2016-05-10T01:40:18.979Z,12.46
2016-05-10T01:41:18.998Z,12.64
2016-05-10T01:42:19.016Z,12.54
2016-05-10T01:44:19.052Z,12.59
2016-05-10T01:45:19.071Z,12.49
2016-05-10T01:46:19.089Z,12.47
2016-05-10T01:47:19.123Z,12.52
2016-05-10T01:49:19.160Z,12.6
2016-05-10T01:50:19.021Z,12.54
2016-05-10T01:51:19.212Z,12.49
2016-05-10T01:52:19.230Z,12.52
2016-05-10T01:53:19.093Z,12.46
2016-05-10T01:54:19.111Z,12.57
2016-05-10T01:55:19.285Z,12.57
2016-05-10T01:56:19.319Z,12.62
2016-05-10T01:57:19.337Z,12.62
2016-05-10T01:58:19.372Z,12.47
2016-05-10T01:59:19.655Z,12.47
2016-05-10T02:00:19.237Z,12.37
2016-05-10T02:01:19.410Z,12.38
2016-05-10T02:02:19.445Z,12.29
2016-05-10T02:03:19.494Z,12.17
2016-05-10T02:04:33.671Z,12.07
2016-05-10T02:05:19.500Z,12.14
2016-05-10T02:06:19.534Z,12.04
2016-05-10T02:07:19.552Z,12.05
2016-05-10T02:08:19.414Z,12.13
2016-05-10T02:09:19.603Z,12.19
2016-05-10T02:10:33.797Z,12.19
2016-05-10T02:11:19.641Z,12.19
2016-05-10T02:12:19.503Z,12.2
2016-05-10T02:13:19.678Z,12.24
2016-05-10T02:14:19.555Z,12.35
2016-05-10T02:15:19.714Z,12.31
2016-05-10T02:16:19.575Z,12.13
2016-05-10T02:17:19.782Z,12.17
2016-05-10T02:18:19.785Z,12.14
2016-05-10T02:19:19.647Z,12.12
2016-05-10T02:20:34.011Z,12.16
2016-05-10T02:22:19.874Z,12.12
2016-05-10T02:23:19.891Z,12.12
2016-05-10T02:26:19.947Z,12.04
2016-05-10T02:27:19.824Z,12.14
2016-05-10T02:28:34.190Z,12.01
2016-05-10T02:30:34.226Z,12.2
2016-05-10T02:31:34.243Z,12.14
2016-05-10T02:32:20.087Z,12.1
2016-05-10T02:33:20.106Z,12.17
2016-05-10T02:34:20.124Z,12.34
2016-05-10T02:35:34.334Z,12.38
2016-05-10T02:36:20.177Z,12.37
2016-05-10T02:37:20.195Z,12.53
2016-05-10T02:38:20.213Z,12.54
2016-05-10T02:39:20.247Z,12.35
2016-05-10T02:40:20.250Z,12.35
2016-05-10T02:41:20.268Z,12.37
2016-05-10T02:42:20.303Z,12.29
2016-05-10T02:43:20.320Z,12.21
2016-05-10T02:44:34.528Z,12.17
2016-05-10T02:45:34.548Z,12.28
2016-05-10T02:46:20.376Z,12.17
2016-05-10T02:47:20.409Z,12.19
2016-05-10T02:48:20.271Z,12.24
2016-05-10T02:49:20.290Z,12.1
2016-05-10T02:50:20.464Z,11.98
2016-05-10T02:51:20.498Z,12.02
2016-05-10T02:52:20.517Z,12.02
2016-05-10T02:53:20.379Z,11.98
2016-05-10T02:54:20.553Z,11.94
2016-05-10T02:55:20.572Z,11.96
2016-05-10T02:56:20.590Z,11.91
2016-05-10T02:57:20.624Z,12.04
2016-05-10T02:58:20.642Z,12.04
2016-05-10T02:59:34.851Z,12.01
2016-05-10T03:00:20.523Z,11.94
2016-05-10T03:01:20.712Z,12.04
2016-05-10T03:02:20.716Z,12.02
2016-05-10T03:03:20.749Z,11.98
2016-05-10T03:04:20.768Z,11.98
2016-05-10T03:05:20.786Z,11.96
2016-05-10T03:06:20.804Z,11.95
2016-05-10T03:07:35.012Z,11.91
2016-05-10T03:08:20.700Z,11.85
2016-05-10T03:09:20.875Z,11.75
2016-05-10T03:11:20.911Z,11.83
2016-05-10T03:12:20.930Z,12.02
2016-05-10T03:13:20.948Z,11.88
2016-05-10T03:14:21.154Z,11.78
2016-05-10T03:15:21.000Z,11.9
2016-05-10T03:16:21.019Z,11.75
2016-05-10T03:17:20.880Z,11.76
2016-05-10T03:18:21.087Z,11.79
2016-05-10T03:19:21.089Z,11.78
2016-05-10T03:20:21.107Z,11.8
2016-05-10T03:21:21.126Z,11.72
2016-05-10T03:22:21.144Z,11.72
2016-05-10T03:23:35.352Z,11.69
2016-05-10T03:24:21.196Z,11.73
2016-05-10T03:25:21.215Z,11.64
2016-05-10T03:26:21.233Z,11.69
2016-05-10T03:27:21.252Z,11.79
2016-05-10T03:29:21.304Z,11.85
2016-05-10T03:30:21.322Z,11.88
2016-05-10T03:31:35.530Z,11.91
2016-05-10T03:33:35.567Z,11.73
2016-05-10T03:34:21.410Z,11.76
2016-05-10T03:35:21.413Z,11.79
2016-05-10T03:36:21.432Z,11.72
2016-05-10T03:37:21.465Z,11.78
2016-05-10T03:38:21.485Z,11.94
2016-05-10T03:39:35.676Z,11.95
2016-05-10T03:40:21.520Z,11.98
2016-05-10T03:41:21.554Z,12.01
2016-05-10T03:42:21.573Z,11.91
2016-05-10T03:43:21.435Z,11.98
2016-05-10T03:44:21.609Z,11.95
2016-05-10T03:45:21.644Z,11.91
2016-05-10T03:46:21.647Z,11.8
2016-05-10T03:47:21.664Z,11.94
2016-05-10T03:48:35.873Z,11.94
2016-05-10T03:49:21.717Z,11.98
2016-05-10T03:50:21.579Z,12.04
2016-05-10T03:51:21.753Z,12.14
2016-05-10T03:52:21.787Z,12.07
2016-05-10T03:53:21.805Z,12.07
2016-05-10T03:54:21.839Z,11.96
2016-05-10T03:55:36.017Z,12.01
2016-05-10T03:56:21.877Z,12.02
2016-05-10T03:57:21.739Z,12.19
2016-05-10T03:58:21.757Z,12.23
2016-05-10T03:59:21.837Z,12.24
2016-05-10T04:00:21.949Z,12.27
2016-05-10T04:01:21.968Z,12.2
2016-05-10T04:02:36.176Z,12.17
2016-05-10T04:03:21.707Z,12.28
2016-05-10T04:04:22.038Z,12.34
2016-05-10T04:05:36.246Z,12.38
2016-05-10T04:06:22.090Z,12.32
2016-05-10T04:07:22.093Z,12.38
2016-05-10T04:08:21.971Z,12.5
2016-05-10T04:09:22.146Z,12.42
2016-05-10T04:10:36.339Z,12.41
2016-05-10T04:11:22.182Z,12.46
2016-05-10T04:12:22.060Z,12.46
2016-05-10T04:13:22.234Z,12.46
2016-05-10T04:14:22.409Z,12.42
2016-05-10T04:15:22.287Z,12.46
2016-05-10T04:16:22.320Z,12.42
2016-05-10T04:17:36.342Z,12.45
2016-05-10T04:18:22.342Z,12.54
2016-05-10T04:19:22.203Z,12.49
2016-05-10T04:20:36.568Z,12.5
2016-05-10T04:21:22.411Z,12.47
2016-05-10T04:22:22.430Z,12.62
2016-05-10T04:23:22.449Z,12.67
2016-05-10T04:24:22.467Z,12.54
2016-05-10T04:25:22.486Z,12.65
2016-05-10T04:26:22.364Z,12.67
2016-05-10T04:27:22.538Z,12.78
2016-05-10T04:28:22.555Z,12.68
2016-05-10T04:29:22.590Z,12.77
2016-05-10T04:30:22.593Z,12.85
2016-05-10T04:31:22.627Z,12.83
2016-05-10T04:32:22.630Z,12.86
2016-05-10T04:33:22.507Z,12.79
2016-05-10T04:34:22.681Z,12.85
2016-05-10T04:35:22.700Z,12.87
2016-05-10T04:36:22.734Z,12.92
2016-05-10T04:38:22.771Z,13.17
2016-05-10T04:39:22.789Z,13.2
2016-05-10T04:40:22.667Z,13.33
2016-05-10T04:41:22.825Z,13.49
2016-05-10T04:42:37.034Z,13.59
2016-05-10T04:43:22.878Z,13.6
2016-05-10T04:44:22.974Z,13.64
2016-05-10T04:45:22.946Z,13.69
2016-05-10T04:46:22.792Z,13.69
2016-05-10T04:48:22.984Z,13.77
2016-05-10T04:49:23.019Z,14.32
2016-05-10T04:50:22.881Z,15.49
2016-05-10T04:51:23.056Z,16.75
2016-05-10T04:52:37.263Z,17.9
2016-05-10T04:53:37.282Z,18.39
2016-05-10T04:54:23.125Z,19.21
2016-05-10T04:55:22.988Z,19.99
2016-05-10T04:56:23.163Z,20.61
2016-05-10T04:57:23.196Z,21.14
2016-05-10T04:58:37.405Z,21.94
2016-05-10T04:59:23.249Z,22.68
2016-05-10T05:00:23.267Z,23.32
2016-05-10T05:01:23.145Z,23.01
2016-05-10T05:02:23.319Z,22.79
2016-05-10T05:03:23.338Z,22.61
2016-05-10T05:05:23.390Z,22.21
2016-05-10T05:06:23.268Z,22.54
2016-05-10T05:07:23.442Z,23.66
2016-05-10T05:08:23.476Z,24.42
2016-05-10T05:09:23.338Z,24.95
2016-05-10T05:10:23.528Z,24.16
2016-05-10T05:11:23.547Z,23.39
2016-05-10T05:12:23.565Z,23.57
2016-05-10T05:13:23.598Z,24.28
2016-05-10T05:14:37.995Z,23.15
2016-05-10T05:15:23.651Z,22.92
2016-05-10T05:16:23.684Z,22.27
2016-05-10T05:17:23.720Z,22.8
2016-05-10T05:18:23.737Z,23.53
2016-05-10T05:19:23.772Z,24.13
2016-05-10T05:20:23.649Z,24.91
2016-05-10T05:21:23.823Z,24.76
2016-05-10T05:22:38.032Z,24.78
2016-05-10T05:23:23.719Z,25.21
2016-05-10T05:24:23.910Z,25.57
2016-05-10T05:25:38.119Z,26.33
2016-05-10T05:26:23.806Z,25.75
2016-05-10T05:27:24.011Z,25.76
2016-05-10T05:28:24.014Z,26.32
2016-05-10T05:29:24.501Z,26.37
2016-05-10T05:30:38.257Z,26.4
2016-05-10T05:32:24.149Z,26.6
2016-05-10T05:33:24.169Z,27.03
2016-05-10T05:34:24.047Z,27.41
2016-05-10T05:35:24.221Z,27.93
2016-05-10T05:37:24.288Z,26.3
2016-05-10T05:38:24.307Z,27.44
2016-05-10T05:39:38.531Z,28.36
2016-05-10T05:40:38.565Z,28.95
2016-05-10T05:41:24.409Z,29.41
2016-05-10T05:42:24.287Z,29.55
2016-05-10T05:43:24.461Z,28.11
2016-05-10T05:45:38.719Z,26.73
2016-05-10T05:46:24.562Z,27.44
2016-05-10T05:47:24.581Z,26.58
2016-05-10T05:48:24.475Z,27.07
2016-05-10T05:49:24.508Z,27.4
2016-05-10T05:50:24.527Z,27.51
2016-05-10T05:51:24.717Z,27.6
2016-05-10T05:52:24.750Z,26.32
2016-05-10T05:53:38.959Z,26.72
2016-05-10T05:54:24.803Z,27.39
2016-05-10T05:55:24.836Z,28.21
2016-05-10T05:56:24.871Z,29.3
2016-05-10T05:57:24.905Z,29.48
2016-05-10T05:58:24.766Z,28.96
2016-05-10T05:59:25.019Z,27.39
2016-05-10T06:00:24.850Z,27.47
2016-05-10T06:01:24.869Z,28.54
2016-05-10T06:02:25.058Z,28.58
2016-05-10T06:03:24.936Z,28.14
2016-05-10T06:04:25.111Z,28.71
2016-05-10T06:05:25.146Z,29.55
2016-05-10T06:06:25.023Z,30.08
2016-05-10T06:07:25.213Z,30.64
2016-05-10T06:08:25.263Z,29.87
2016-05-10T06:10:25.314Z,28.81
2016-05-10T06:11:39.539Z,28.22
2016-05-10T06:12:25.398Z,28.11
2016-05-10T06:13:25.245Z,27.65
2016-05-10T06:14:25.295Z,27.74
2016-05-10T06:15:25.485Z,28.3
2016-05-10T06:16:25.503Z,28.11
2016-05-10T06:17:39.726Z,28.7
2016-05-10T06:18:25.570Z,29.76
2016-05-10T06:19:25.604Z,31.43
2016-05-10T06:20:25.654Z,32.23
2016-05-10T06:21:25.657Z,32.48
2016-05-10T06:22:25.707Z,32.29
2016-05-10T06:23:25.740Z,32.23
2016-05-10T06:24:25.775Z,32.77
2016-05-10T06:25:25.792Z,32.75
2016-05-10T06:26:40.016Z,33.15
2016-05-10T06:27:25.875Z,32.87
2016-05-10T06:28:25.895Z,32.88
2016-05-10T06:30:25.806Z,32.33
2016-05-10T06:31:25.840Z,31.54
2016-05-10T06:32:26.031Z,29.82
2016-05-10T06:33:40.254Z,29.45
2016-05-10T06:34:26.113Z,29.6
2016-05-10T06:35:25.976Z,29.31
2016-05-10T06:36:26.166Z,29.34
2016-05-10T06:37:26.215Z,29.98
2016-05-10T06:38:40.424Z,31.34
2016-05-10T06:39:26.112Z,32.25
2016-05-10T06:40:26.301Z,32.33
2016-05-10T06:41:26.335Z,31.58
2016-05-10T06:43:26.404Z,30.82
2016-05-10T06:44:27.407Z,31.88
2016-05-10T06:45:26.331Z,32.14
2016-05-10T06:46:26.506Z,33.04
2016-05-10T06:47:26.555Z,32.55
2016-05-10T06:48:26.432Z,30.79
2016-05-10T06:49:40.798Z,30.49
2016-05-10T06:51:40.881Z,31.56
2016-05-10T06:52:26.740Z,30.98
2016-05-10T06:53:26.775Z,31.29
2016-05-10T06:54:26.793Z,30.77
2016-05-10T06:56:26.860Z,31.25
2016-05-10T06:57:26.894Z,32.06
2016-05-10T06:58:41.119Z,32.82
2016-05-10T06:59:27.556Z,32.57
2016-05-10T07:00:41.186Z,31.29
2016-05-10T07:01:26.874Z,29.8
2016-05-10T07:02:27.063Z,30.04
2016-05-10T07:03:27.098Z,30
2016-05-10T07:04:27.132Z,30.23
2016-05-10T07:05:41.355Z,30.53
2016-05-10T07:06:27.043Z,30.29
2016-05-10T07:07:27.249Z,30.69
2016-05-10T07:08:27.283Z,30.98
2016-05-10T07:09:27.301Z,30.72
2016-05-10T07:10:27.196Z,30.97
2016-05-10T07:11:27.229Z,30.54
2016-05-10T07:12:27.418Z,31.53
2016-05-10T07:13:27.468Z,31.53
2016-05-10T07:14:27.487Z,32.07
2016-05-10T07:15:27.521Z,32.67
2016-05-10T07:16:27.555Z,33.14
2016-05-10T07:17:27.589Z,33.28
2016-05-10T07:18:27.623Z,33.45
2016-05-10T07:19:27.656Z,32.32
2016-05-10T07:20:41.881Z,31.5
2016-05-10T07:21:27.568Z,30.92
2016-05-10T07:23:28.464Z,29.6
2016-05-10T07:24:27.842Z,29.92
2016-05-10T07:28:27.822Z,29.45
2016-05-10T07:29:28.105Z,28.73
2016-05-10T07:30:28.045Z,29.24
2016-05-10T07:31:28.079Z,29.71
2016-05-10T07:32:28.113Z,30.42
2016-05-10T07:33:28.147Z,31.35
2016-05-10T07:34:28.197Z,31.56
2016-05-10T07:36:28.249Z,31.5
2016-05-10T07:37:28.299Z,31.46
2016-05-10T07:38:28.332Z,31.62
2016-05-10T07:39:28.210Z,31.28
2016-05-10T07:40:28.401Z,31.17
2016-05-10T07:41:28.434Z,30.92
2016-05-10T07:42:28.468Z,31.44
2016-05-10T07:44:28.583Z,30.69
2016-05-10T07:45:28.571Z,31.7
2016-05-10T07:46:28.448Z,30.64
2016-05-10T07:47:28.685Z,30.94
2016-05-10T07:48:28.703Z,31.04
2016-05-10T07:49:28.706Z,30.46
2016-05-10T07:50:28.834Z,30.39
2016-05-10T07:51:28.790Z,29.7
2016-05-10T07:52:43.014Z,29.63
2016-05-10T07:53:28.857Z,29.24
2016-05-10T07:54:28.735Z,29.73
2016-05-10T07:55:28.926Z,29.7
2016-05-10T07:56:28.959Z,30.16
2016-05-10T07:57:28.993Z,30.65
2016-05-10T07:58:28.886Z,31.26
2016-05-10T07:59:28.967Z,31.85
2016-05-10T08:00:43.285Z,32.26
2016-05-10T08:01:29.144Z,32.14
2016-05-10T08:02:43.353Z,31.88
2016-05-10T08:03:29.213Z,30.34
2016-05-10T08:04:29.261Z,30.62
2016-05-10T08:05:29.280Z,30.37
2016-05-10T08:06:29.330Z,29.26
2016-05-10T08:07:29.349Z,29.86
2016-05-10T08:08:43.572Z,30.04
2016-05-10T08:09:29.432Z,30.77
2016-05-10T08:11:29.515Z,32
2016-05-10T08:12:29.533Z,30.77
2016-05-10T08:13:29.568Z,30.73
2016-05-10T08:14:29.648Z,31.07
2016-05-10T08:15:29.479Z,30.79
2016-05-10T08:16:29.669Z,31.41
2016-05-10T08:17:43.909Z,31.35
2016-05-10T08:18:29.737Z,31.04
2016-05-10T08:19:29.771Z,30.05
2016-05-10T08:20:29.805Z,29.37
2016-05-10T08:21:29.682Z,29.36
2016-05-10T08:22:29.717Z,29.83
2016-05-10T08:23:29.907Z,30.55
2016-05-10T08:24:44.131Z,30.76
2016-05-10T08:25:29.834Z,31.65
2016-05-10T08:27:30.058Z,32.7
2016-05-10T08:28:29.936Z,32.52
2016-05-10T08:29:30.876Z,32.87
2016-05-10T08:30:30.925Z,33.66
2016-05-10T08:31:44.228Z,31.73
2016-05-10T08:32:30.228Z,31.91
2016-05-10T08:33:44.453Z,31.19
2016-05-10T08:34:30.343Z,30.61
2016-05-10T08:35:30.330Z,31.51
2016-05-10T08:36:30.363Z,30.27
2016-05-10T08:37:30.413Z,30.94
2016-05-10T08:38:30.432Z,30.95
2016-05-10T08:39:30.309Z,32.74
2016-05-10T08:40:44.690Z,32.74
2016-05-10T08:42:30.567Z,32.35
2016-05-10T08:43:30.616Z,31.8
2016-05-10T08:44:32.198Z,32.14
2016-05-10T08:45:30.685Z,32.72
2016-05-10T08:47:30.737Z,31.25
2016-05-10T08:48:30.787Z,30.1
2016-05-10T08:49:30.821Z,31.04
2016-05-10T08:50:30.854Z,32.19
2016-05-10T08:51:30.888Z,30.73
2016-05-10T08:52:30.923Z,31.56
2016-05-10T08:53:30.973Z,31.5
2016-05-10T08:54:30.834Z,31.61
2016-05-10T08:55:45.215Z,30.53
2016-05-10T08:56:31.059Z,30.6
2016-05-10T08:57:31.108Z,31.7
2016-05-10T08:58:30.986Z,33.23
2016-05-10T08:59:31.019Z,33.51
2016-05-10T09:00:31.053Z,33.01
2016-05-10T09:01:31.228Z,34.19
2016-05-10T09:02:45.452Z,32.78
2016-05-10T09:03:31.327Z,32.69
2016-05-10T09:04:31.344Z,30.76
2016-05-10T09:05:31.222Z,31.47
2016-05-10T09:06:31.414Z,33
2016-05-10T09:07:31.447Z,34.19
2016-05-10T09:08:31.481Z,33.94
2016-05-10T09:09:31.516Z,33.15
2016-05-10T09:10:31.549Z,32.55
2016-05-10T09:11:31.583Z,32.25
2016-05-10T09:12:43.072Z,32.44
2016-05-10T09:13:39.200Z,33.31
2016-05-10T09:14:33.091Z,33.04
2016-05-10T09:15:33.625Z,33.44
2016-05-10T09:16:31.612Z,33.72
2016-05-10T09:17:31.802Z,33.59
2016-05-10T09:18:31.821Z,32.87
2016-05-10T09:19:31.891Z,32.74
2016-05-10T09:20:31.827Z,33.44
2016-05-10T09:21:32.058Z,32.29
2016-05-10T09:22:32.133Z,31.23
2016-05-10T09:23:32.193Z,31.41
2016-05-10T09:24:32.276Z,31.58
2016-05-10T09:25:32.325Z,32.33
2016-05-10T09:26:32.358Z,33.47
2016-05-10T09:27:46.456Z,34.52
2016-05-10T09:28:32.315Z,35.28
2016-05-10T09:29:32.512Z,36.87
2016-05-10T09:30:32.380Z,38.18
2016-05-10T09:31:32.575Z,38.41
2016-05-10T09:32:32.615Z,36.85
2016-05-10T09:33:32.669Z,36.51
2016-05-10T09:34:32.706Z,37.06
2016-05-10T09:35:32.569Z,37.6
2016-05-10T09:36:32.761Z,37.21
2016-05-10T09:37:32.657Z,36.91
2016-05-10T09:38:32.849Z,36.56
2016-05-10T09:39:47.059Z,36.07
2016-05-10T09:40:32.919Z,35.28
2016-05-10T09:41:32.968Z,35.45
2016-05-10T09:42:32.847Z,33.95
2016-05-10T09:43:47.213Z,32.55
2016-05-10T09:44:33.088Z,32.87
2016-05-10T09:45:32.951Z,33.59
2016-05-10T09:46:32.984Z,34.53
2016-05-10T09:47:33.176Z,33.68
2016-05-10T09:49:33.243Z,31.72
2016-05-10T09:50:33.278Z,32.57
2016-05-10T09:52:33.189Z,33.66
2016-05-10T09:53:33.223Z,34.58
2016-05-10T09:54:33.414Z,35.15
2016-05-10T09:55:33.447Z,34.64
2016-05-10T09:56:33.325Z,34.64
2016-05-10T09:57:33.515Z,34.7
2016-05-10T09:58:33.408Z,34.46
2016-05-10T09:59:47.789Z,33.9
2016-05-10T10:00:33.477Z,34.1
2016-05-10T10:01:33.667Z,35.55
2016-05-10T10:02:33.700Z,35.97
2016-05-10T10:04:33.784Z,34.47
2016-05-10T10:05:33.818Z,34.96
2016-05-10T10:06:33.711Z,35.82
2016-05-10T10:07:33.886Z,36.49
2016-05-10T10:08:33.607Z,36.08
2016-05-10T10:09:33.939Z,34.42
2016-05-10T10:10:33.988Z,34.28
2016-05-10T10:11:34.038Z,33.61
2016-05-10T10:12:34.072Z,34.89
2016-05-10T10:13:34.105Z,34.85
2016-05-10T10:14:33.999Z,33.35
2016-05-10T10:15:48.348Z,32.67
2016-05-10T10:16:34.207Z,33.41
2016-05-10T10:17:34.241Z,34.37
2016-05-10T10:18:34.150Z,35.56
2016-05-10T10:19:34.309Z,35.06
2016-05-10T10:20:34.342Z,34.09
2016-05-10T10:21:34.393Z,34.59
2016-05-10T10:22:48.445Z,34.99
2016-05-10T10:23:34.460Z,36.05
2016-05-10T10:24:34.494Z,37.31
2016-05-10T10:25:48.718Z,37.79
2016-05-10T10:26:34.562Z,37.17
2016-05-10T10:27:34.612Z,36.91
2016-05-10T10:28:34.474Z,37.6
2016-05-10T10:29:35.617Z,37.55
2016-05-10T10:30:48.731Z,35.58
2016-05-10T10:31:34.747Z,34.06
2016-05-10T10:32:34.781Z,32.88
2016-05-10T10:33:34.816Z,33.35
2016-05-10T10:34:34.693Z,34.43
2016-05-10T10:35:34.883Z,35.58
2016-05-10T10:36:34.933Z,36.17
2016-05-10T10:37:34.810Z,36.38
2016-05-10T10:38:35.016Z,34.34
2016-05-10T10:39:49.224Z,33.84
2016-05-10T10:40:35.068Z,32.93
2016-05-10T10:41:35.103Z,32.63
2016-05-10T10:42:35.152Z,32.41
2016-05-10T10:43:35.014Z,33.53
2016-05-10T10:44:35.236Z,33.68
2016-05-10T10:45:35.254Z,32.72
2016-05-10T10:46:35.132Z,32.57
2016-05-10T10:47:35.322Z,32.99
2016-05-10T10:48:35.356Z,34.05
2016-05-10T10:49:35.389Z,33.72
2016-05-10T10:50:35.424Z,34.43
2016-05-10T10:51:35.474Z,34.7
2016-05-10T10:52:35.492Z,34.27
2016-05-10T10:53:49.731Z,34.02
2016-05-10T10:54:35.418Z,35.03
2016-05-10T10:55:35.609Z,36.29
2016-05-10T10:56:35.658Z,36.84
2016-05-10T10:57:35.692Z,35.43
2016-05-10T10:58:35.711Z,34.34
2016-05-10T10:59:35.776Z,33.68
2016-05-10T11:00:35.795Z,33.19
2016-05-10T11:02:50.053Z,31.68
2016-05-10T11:03:35.897Z,31.16
2016-05-10T11:04:35.946Z,30.46
2016-05-10T11:05:35.980Z,30.51
2016-05-10T11:07:35.891Z,29.6
2016-05-10T11:08:36.081Z,29.64
2016-05-10T11:09:36.115Z,29.58
2016-05-10T11:10:50.339Z,27.88
2016-05-10T11:11:36.199Z,27.36
2016-05-10T11:12:36.217Z,27.02
2016-05-10T11:13:36.266Z,26.92
2016-05-10T11:14:36.488Z,26.91
2016-05-10T11:15:36.022Z,26.77
2016-05-10T11:17:36.246Z,26.13
2016-05-10T11:18:50.627Z,25.91
2016-05-10T11:19:36.486Z,26.01
2016-05-10T11:20:36.520Z,26.07
2016-05-10T11:21:36.554Z,26.01
2016-05-10T11:22:36.588Z,25.91
2016-05-10T11:23:50.656Z,26.07
2016-05-10T11:24:36.515Z,26.23
2016-05-10T11:25:50.740Z,26.28
2016-05-10T11:26:36.724Z,26.45
2016-05-10T11:27:36.773Z,26.02
2016-05-10T11:28:36.807Z,25.55
2016-05-10T11:30:36.875Z,25.92
2016-05-10T11:31:36.925Z,25.83
2016-05-10T11:32:36.786Z,25.97
2016-05-10T11:33:36.977Z,26.01
2016-05-10T11:34:51.216Z,25.77
2016-05-10T11:35:36.903Z,25.87
2016-05-10T11:36:37.094Z,25.83
2016-05-10T11:37:37.128Z,25.72
2016-05-10T11:38:37.161Z,25.97
2016-05-10T11:39:37.039Z,25.73
2016-05-10T11:40:37.230Z,25.55
2016-05-10T11:41:51.455Z,25.28
2016-05-10T11:42:37.158Z,25.38
2016-05-10T11:43:37.191Z,25.4
2016-05-10T11:44:38.443Z,25.3
2016-05-10T11:45:37.416Z,25.3
2016-05-10T11:46:37.434Z,25.45
2016-05-10T11:47:37.327Z,25.51
2016-05-10T11:48:37.518Z,25.73
2016-05-10T11:49:37.551Z,25.77
2016-05-10T11:50:51.776Z,25.85
2016-05-10T11:51:37.619Z,26.06
2016-05-10T11:52:37.653Z,26.02
2016-05-10T11:53:37.687Z,26.21
2016-05-10T11:54:37.565Z,26.29
2016-05-10T11:55:37.754Z,25.85
2016-05-10T11:56:37.789Z,25.88
2016-05-10T11:58:37.856Z,25.85
2016-05-10T11:59:37.890Z,25.8
2016-05-10T12:00:37.925Z,25.98
2016-05-10T12:01:37.958Z,25.67
2016-05-10T12:02:52.166Z,25.69
2016-05-10T12:03:38.025Z,25.83
2016-05-10T12:04:38.060Z,26.02
2016-05-10T12:05:52.112Z,26.2
2016-05-10T12:06:38.112Z,26.28
2016-05-10T12:07:38.147Z,26.33
2016-05-10T12:09:38.058Z,26.18
2016-05-10T12:10:38.248Z,26.1
2016-05-10T12:11:38.126Z,26.13
2016-05-10T12:12:38.332Z,26.17
2016-05-10T12:13:38.194Z,26.28
2016-05-10T12:14:38.400Z,26.21
2016-05-10T12:15:52.593Z,25.87
2016-05-10T12:16:38.452Z,25.69
2016-05-10T12:17:38.486Z,25.6
2016-05-10T12:18:38.504Z,25.54
2016-05-10T12:19:38.554Z,25.61
2016-05-10T12:20:38.572Z,25.55
2016-05-10T12:22:38.655Z,25.38
2016-05-10T12:24:38.535Z,25.69
2016-05-10T12:25:38.727Z,25.5
2016-05-10T12:26:38.760Z,25.61
2016-05-10T12:27:38.793Z,25.6
2016-05-10T12:28:38.813Z,25.69
2016-05-10T12:29:39.034Z,25.39
2016-05-10T12:30:38.865Z,25.32
2016-05-10T12:31:38.915Z,25.2
2016-05-10T12:32:38.931Z,25.05
2016-05-10T12:33:38.967Z,25.18
2016-05-10T12:34:39.001Z,25.09
2016-05-10T12:35:39.019Z,25.15
2016-05-10T12:36:38.897Z,25.42
2016-05-10T12:37:53.261Z,25.6
2016-05-10T12:38:38.995Z,25.76
2016-05-10T12:39:39.139Z,26.01
2016-05-10T12:40:39.157Z,25.95
2016-05-10T12:41:39.191Z,25.38
2016-05-10T12:43:53.433Z,25.25
2016-05-10T12:44:39.121Z,25.3
2016-05-10T12:45:38.999Z,25.23
2016-05-10T12:46:39.626Z,25.28
2016-05-10T12:48:39.397Z,25.21
2016-05-10T12:49:39.416Z,25.32
2016-05-10T12:50:39.449Z,25.32
2016-05-10T12:51:39.468Z,25.24
2016-05-10T12:52:39.346Z,25.25
2016-05-10T12:53:53.710Z,25.35
2016-05-10T12:55:39.431Z,25.3
2016-05-10T12:56:39.622Z,25.3
2016-05-10T12:57:39.640Z,25.23
2016-05-10T12:59:39.583Z,25.52
2016-05-10T13:00:39.429Z,25.5
2016-05-10T13:01:39.604Z,25.55
2016-05-10T13:02:53.970Z,25.38
2016-05-10T13:03:39.657Z,25.42
2016-05-10T13:04:39.690Z,25.27
2016-05-10T13:05:39.568Z,25.32
2016-05-10T13:06:39.915Z,25.52
2016-05-10T13:07:39.933Z,25.38
2016-05-10T13:08:39.951Z,25.45
2016-05-10T13:09:54.159Z,25.47
2016-05-10T13:10:40.003Z,25.23
2016-05-10T13:11:40.037Z,24.95
2016-05-10T13:12:40.071Z,25
2016-05-10T13:14:40.420Z,25.23
2016-05-10T13:15:40.157Z,25.3
2016-05-10T13:16:40.175Z,25.24
2016-05-10T13:17:40.194Z,25.24
2016-05-10T13:18:40.228Z,25.25
2016-05-10T13:19:40.262Z,25.45
2016-05-10T13:20:40.140Z,25.57
2016-05-10T13:21:40.314Z,25.47
2016-05-10T13:22:40.177Z,25.47
2016-05-10T13:23:40.663Z,25.57
2016-05-10T13:24:40.400Z,25.61
2016-05-10T13:25:54.609Z,25.65
2016-05-10T13:26:40.296Z,25.57
2016-05-10T13:27:40.471Z,25.47
2016-05-10T13:28:40.504Z,25.36
2016-05-10T13:29:54.823Z,25.25
2016-05-10T13:30:40.557Z,25.35
2016-05-10T13:32:40.609Z,25.25
2016-05-10T13:33:54.834Z,25.28
2016-05-10T13:34:40.678Z,25.38
2016-05-10T13:35:40.586Z,25.4
2016-05-10T13:36:40.729Z,25.28
2016-05-10T13:37:40.607Z,25.3
2016-05-10T13:38:40.782Z,25.21
2016-05-10T13:39:40.800Z,25.21
2016-05-10T13:40:55.024Z,25.25
2016-05-10T13:41:40.867Z,25.21
2016-05-10T13:42:40.730Z,25.25
2016-05-10T13:44:05.172Z,25.42
2016-05-10T13:44:40.954Z,25.45
2016-05-10T13:45:40.973Z,25.45
2016-05-10T13:46:40.991Z,25.5
2016-05-10T13:47:41.025Z,25.52
2016-05-10T13:48:40.902Z,25.46
2016-05-10T13:49:41.077Z,25.42
2016-05-10T13:50:41.127Z,25.24
2016-05-10T13:51:55.319Z,25.42
2016-05-10T13:52:41.163Z,25.35
2016-05-10T13:53:41.213Z,25.35